createdAt,value
2018-01-03T00:02:17.484Z,100153.89
2018-01-03T00:04:45.157Z,100140.50
2018-01-03T00:07:12.739Z,100127.15
2018-01-03T00:09:40.344Z,100114.76
2018-01-03T00:12:07.984Z,100104.68
2018-01-03T00:14:35.561Z,100096.85
2018-01-03T00:17:03.181Z,100091.63
2018-01-03T00:19:30.788Z,100086.61
2018-01-03T00:21:58.391Z,100085.49
2018-01-03T00:24:26.014Z,100074.73
2018-01-03T00:26:53.620Z,100068.33
2018-01-03T00:29:21.222Z,100064.33
2018-01-03T00:31:48.850Z,100050.08
2018-01-03T00:34:16.452Z,100047.84
2018-01-03T00:36:44.064Z,100044.22
2018-01-03T00:39:11.728Z,100035.28
2018-01-03T00:41:39.396Z,100034.86
2018-01-03T00:44:07.024Z,100024.16
2018-01-03T00:46:34.667Z,100017.75
2018-01-03T00:49:02.294Z,100002.30
2018-01-03T00:51:30.196Z,99997.61
2018-01-03T00:53:57.820Z,99992.89
2018-01-03T00:56:25.464Z,99988.82
2018-01-03T00:58:53.391Z,99985.63
2018-01-03T01:01:20.992Z,99980.59
2018-01-03T01:03:48.607Z,99968.13
2018-01-03T01:06:16.226Z,99960.25
2018-01-03T01:08:43.847Z,99945.05
2018-01-03T01:11:11.447Z,99949.35
2018-01-03T01:13:39.036Z,99927.95
2018-01-03T01:16:06.656Z,99929.28
2018-01-03T01:18:34.255Z,99922.27
2018-01-03T01:21:01.905Z,99916.80
2018-01-03T01:23:29.531Z,99916.50
2018-01-03T01:25:57.123Z,99906.39
2018-01-03T01:28:24.759Z,99893.79
2018-01-03T01:30:52.708Z,99882.28
2018-01-03T01:33:20.331Z,99875.33
2018-01-03T01:35:47.926Z,99865.57
2018-01-03T01:40:49.363Z,99849.17
2018-01-03T01:43:16.990Z,99836.77
2018-01-03T01:45:44.638Z,99828.81
2018-01-03T01:48:12.504Z,99819.53
2018-01-03T01:50:40.077Z,99802.19
2018-01-03T01:53:07.741Z,99788.42
2018-01-03T01:55:35.335Z,99778.99
2018-01-03T01:58:02.966Z,99766.73
2018-01-03T02:00:30.545Z,99752.03
2018-01-03T02:02:58.130Z,99739.06
2018-01-03T02:05:25.791Z,99730.65
2018-01-03T02:07:53.398Z,99725.03
2018-01-03T02:10:21.027Z,99710.91
2018-01-03T02:12:48.622Z,99702.99
2018-01-03T02:15:16.244Z,99700.84
2018-01-03T02:17:43.848Z,99706.09
2018-01-03T02:20:11.416Z,99689.20
2018-01-03T02:22:39.368Z,99678.82
2018-01-03T02:25:06.953Z,99671.00
2018-01-03T02:27:34.531Z,99658.47
2018-01-03T02:30:02.418Z,99642.30
2018-01-03T02:32:30.015Z,99642.14
2018-01-03T02:34:57.996Z,99633.55
2018-01-03T02:37:25.573Z,99607.58
2018-01-03T02:39:53.176Z,99592.80
2018-01-03T02:42:20.788Z,99586.62
2018-01-03T02:44:48.644Z,99571.69
2018-01-03T02:47:16.296Z,99565.58
2018-01-03T02:49:43.862Z,99542.30
2018-01-03T02:52:11.446Z,99530.09
2018-01-03T02:54:39.069Z,99528.20
2018-01-03T02:57:06.661Z,99519.52
2018-01-03T02:59:34.299Z,99510.44
2018-01-03T03:02:02.294Z,99492.45
2018-01-03T03:04:29.910Z,99482.06
2018-01-03T03:06:57.520Z,99478.02
2018-01-03T03:09:25.106Z,99475.80
2018-01-03T03:11:52.719Z,99464.03
2018-01-03T03:14:20.298Z,99455.20
2018-01-03T03:16:47.910Z,99445.21
2018-01-03T03:19:15.559Z,99432.50
2018-01-03T03:21:43.144Z,99419.43
2018-01-03T03:24:10.775Z,99405.78
2018-01-03T03:26:38.363Z,99395.95
2018-01-03T03:29:05.957Z,99393.68
2018-01-03T03:31:33.567Z,99392.36
2018-01-03T03:34:01.143Z,99390.01
2018-01-03T03:36:28.795Z,99374.52
2018-01-03T03:38:56.386Z,99355.95
2018-01-03T03:41:24.694Z,99360.70
2018-01-03T03:43:52.302Z,99341.62
2018-01-03T03:46:19.894Z,99336.55
2018-01-03T03:48:47.780Z,99325.89
2018-01-03T03:51:16.301Z,99319.73
2018-01-03T03:53:44.232Z,99304.98
2018-01-03T03:56:11.840Z,99295.33
2018-01-03T03:58:39.417Z,99289.09
2018-01-03T04:01:07.059Z,99271.24
2018-01-03T04:03:34.631Z,99257.53
2018-01-03T04:06:02.215Z,99242.77
2018-01-03T04:08:29.831Z,99229.52
2018-01-03T04:10:57.408Z,99215.16
2018-01-03T04:13:25.050Z,99199.33
2018-01-03T04:15:52.632Z,99173.39
2018-01-03T04:18:20.213Z,99171.39
2018-01-03T04:20:47.828Z,99158.32
2018-01-03T04:23:15.525Z,99141.42
2018-01-03T04:25:43.181Z,99119.98
2018-01-03T04:28:11.017Z,99115.41
2018-01-03T04:30:38.596Z,99106.54
2018-01-03T04:33:06.739Z,99081.13
2018-01-03T04:35:34.320Z,99086.39
2018-01-03T04:38:02.291Z,99078.28
2018-01-03T04:40:29.872Z,99066.19
2018-01-03T04:42:57.817Z,99062.84
2018-01-03T04:45:25.449Z,99052.12
2018-01-03T04:47:53.037Z,99049.22
2018-01-03T04:50:20.672Z,99024.70
2018-01-03T04:52:48.271Z,99003.06
2018-01-03T04:55:15.840Z,98981.88
2018-01-03T04:57:43.786Z,98961.88
2018-01-03T05:00:11.383Z,98923.70
2018-01-03T05:02:39.043Z,98925.38
2018-01-03T05:05:06.647Z,98938.74
2018-01-03T05:07:34.229Z,98938.09
2018-01-03T05:10:01.866Z,98915.91
2018-01-03T05:12:29.450Z,98910.05
2018-01-03T05:14:57.056Z,98905.77
2018-01-03T05:17:24.980Z,98884.00
2018-01-03T05:19:52.556Z,98875.70
2018-01-03T05:22:20.163Z,98856.16
2018-01-03T05:24:47.796Z,98841.25
2018-01-03T05:27:15.437Z,98830.05
2018-01-03T05:29:43.301Z,98830.45
2018-01-03T05:32:11.168Z,98831.52
2018-01-03T05:34:38.875Z,98826.86
2018-01-03T05:37:06.475Z,98824.14
2018-01-03T05:39:34.103Z,98823.23
2018-01-03T05:42:01.695Z,98805.75
2018-01-03T05:44:29.270Z,98799.72
2018-01-03T05:46:56.879Z,98801.55
2018-01-03T05:49:24.446Z,98775.72
2018-01-03T05:51:52.072Z,98765.48
2018-01-03T05:54:19.934Z,98754.93
2018-01-03T05:56:47.554Z,98746.94
2018-01-03T05:59:15.160Z,98735.87
2018-01-03T06:01:42.764Z,98739.11
2018-01-03T06:04:10.687Z,98729.73
2018-01-03T06:06:38.271Z,98719.72
2018-01-03T06:09:05.879Z,98714.95
2018-01-03T06:11:33.535Z,98685.48
2018-01-03T06:14:01.116Z,98672.23
2018-01-03T06:16:28.753Z,98649.64
2018-01-03T06:18:56.392Z,98622.15
2018-01-03T06:21:23.975Z,98600.20
2018-01-03T06:23:51.585Z,98585.95
2018-01-03T06:26:19.194Z,98570.74
2018-01-03T06:28:46.827Z,98561.41
2018-01-03T06:31:14.394Z,98557.37
2018-01-03T06:33:41.977Z,98542.94
2018-01-03T06:36:09.658Z,98533.66
2018-01-03T06:38:37.278Z,98516.98
2018-01-03T06:41:05.676Z,98517.81
2018-01-03T06:43:33.256Z,98504.45
2018-01-03T06:46:00.843Z,98491.84
2018-01-03T06:48:28.509Z,98459.75
2018-01-03T06:50:56.085Z,98451.39
2018-01-03T06:53:23.907Z,98447.61
2018-01-03T06:55:51.507Z,98421.31
2018-01-03T06:58:19.106Z,98401.25
2018-01-03T07:00:46.726Z,98382.23
2018-01-03T07:03:14.309Z,98360.23
2018-01-03T07:05:41.921Z,98360.02
2018-01-03T07:08:09.827Z,98354.16
2018-01-03T07:10:37.409Z,98359.63
2018-01-03T07:13:05.020Z,98364.31
2018-01-03T07:15:32.646Z,98333.11
2018-01-03T07:18:00.295Z,98335.45
2018-01-03T07:20:27.873Z,98328.58
2018-01-03T07:22:55.451Z,98315.67
2018-01-03T07:25:23.059Z,98318.03
2018-01-03T07:27:50.636Z,98305.41
2018-01-03T07:30:18.248Z,98299.86
2018-01-03T07:32:46.144Z,98286.35
2018-01-03T07:35:14.135Z,98286.94
2018-01-03T07:37:41.754Z,98287.66
2018-01-03T07:40:09.332Z,98287.45
2018-01-03T07:42:36.914Z,98277.00
2018-01-03T07:45:04.877Z,98251.41
2018-01-03T07:47:32.847Z,98253.34
2018-01-03T07:50:00.423Z,98264.60
2018-01-03T07:52:28.375Z,98228.75
2018-01-03T07:54:55.975Z,98222.35
2018-01-03T07:57:23.559Z,98225.00
2018-01-03T07:59:51.179Z,98226.20
2018-01-03T08:02:18.820Z,98227.02
2018-01-03T08:04:46.395Z,98211.39
2018-01-03T08:07:13.999Z,98198.67
2018-01-03T08:09:41.586Z,98182.11
2018-01-03T08:12:09.313Z,98168.41
2018-01-03T08:14:36.969Z,98149.61
2018-01-03T08:17:04.631Z,98137.73
2018-01-03T08:19:32.422Z,98132.46
2018-01-03T08:22:00.073Z,98109.79
2018-01-03T08:24:27.774Z,98075.04
2018-01-03T08:26:55.391Z,98059.58
2018-01-03T08:29:22.976Z,98024.44
2018-01-03T08:31:50.885Z,98040.00
2018-01-03T08:34:18.464Z,98035.61
2018-01-03T08:36:46.083Z,98030.94
2018-01-03T08:39:13.673Z,98020.78
2018-01-03T08:41:41.254Z,98014.45
2018-01-03T08:44:08.861Z,98011.32
2018-01-03T08:46:36.435Z,98099.62
2018-01-03T08:49:04.430Z,98076.44
2018-01-03T08:51:32.018Z,98081.82
2018-01-03T08:53:59.613Z,98064.25
2018-01-03T08:56:27.235Z,98066.49
2018-01-03T08:58:54.816Z,98063.47
2018-01-03T09:01:22.596Z,98035.81
2018-01-03T09:03:50.172Z,98033.55
2018-01-03T09:06:18.069Z,98021.34
2018-01-03T09:08:45.664Z,98024.59
2018-01-03T09:11:13.243Z,98025.30
2018-01-03T09:13:40.856Z,98035.77
2018-01-03T09:16:08.439Z,98023.78
2018-01-03T09:18:36.024Z,98030.66
2018-01-03T09:21:03.623Z,98023.92
2018-01-03T09:23:31.246Z,98015.19
2018-01-03T09:25:58.867Z,98003.53
2018-01-03T09:28:26.498Z,97999.88
2018-01-03T09:30:54.094Z,98004.95
2018-01-03T09:33:22.062Z,98007.73
2018-01-03T09:35:49.691Z,98002.41
2018-01-03T09:38:17.351Z,97996.68
2018-01-03T09:40:44.928Z,97996.06
2018-01-03T09:43:13.074Z,97993.73
2018-01-03T09:45:40.676Z,97991.94
2018-01-03T09:48:08.271Z,97987.05
2018-01-03T09:50:35.909Z,97990.69
2018-01-03T09:53:03.491Z,97987.43
2018-01-03T09:55:31.099Z,97992.64
2018-01-03T09:57:58.708Z,97993.94
2018-01-03T10:00:26.324Z,97990.58
2018-01-03T10:02:54.038Z,97987.49
2018-01-03T10:05:21.611Z,97979.00
2018-01-03T10:07:49.230Z,97985.67
2018-01-03T10:10:16.905Z,97986.79
2018-01-03T10:12:44.492Z,97984.30
2018-01-03T10:15:12.116Z,97999.70
2018-01-03T10:17:39.985Z,98000.02
2018-01-03T10:20:07.567Z,97994.48
2018-01-03T10:22:35.620Z,98005.67
2018-01-03T10:25:03.300Z,97996.81
2018-01-03T10:27:30.955Z,98005.56
2018-01-03T10:29:59.274Z,97993.86
2018-01-03T10:32:26.914Z,97998.14
2018-01-03T10:34:55.481Z,98007.91
2018-01-03T10:37:23.452Z,98007.19
2018-01-03T10:39:51.406Z,97994.88
2018-01-03T10:42:19.044Z,97991.39
2018-01-03T10:44:46.640Z,97984.27
2018-01-03T10:47:14.307Z,97987.78
2018-01-03T10:49:41.894Z,97994.97
2018-01-03T10:52:10.006Z,97987.02
2018-01-03T10:54:38.003Z,97991.18
2018-01-03T10:57:05.644Z,97991.13
2018-01-03T10:59:33.255Z,97988.67
2018-01-03T11:02:00.839Z,97984.58
2018-01-03T11:04:29.701Z,97975.56
2018-01-03T11:06:57.315Z,97971.88
2018-01-03T11:09:24.897Z,97970.61
2018-01-03T11:11:52.516Z,97963.41
2018-01-03T11:14:21.256Z,97963.45
2018-01-03T11:16:48.904Z,97960.76
2018-01-03T11:19:16.785Z,97947.09
2018-01-03T11:21:44.369Z,97947.28
2018-01-03T11:24:11.992Z,97950.91
2018-01-03T11:26:39.574Z,97951.70
2018-01-03T11:29:07.191Z,97942.21
2018-01-03T11:31:34.759Z,97950.95
2018-01-03T11:34:02.332Z,97943.17
2018-01-03T11:36:29.935Z,97944.93
2018-01-03T11:38:57.883Z,97944.89
2018-01-03T11:41:25.522Z,97935.62
2018-01-03T11:43:53.424Z,97942.32
2018-01-03T11:46:21.014Z,97946.41
2018-01-03T11:48:48.609Z,97941.75
2018-01-03T11:51:16.206Z,97949.69
2018-01-03T11:53:43.832Z,97940.72
2018-01-03T11:56:11.428Z,97944.24
2018-01-03T11:58:39.057Z,97949.23
2018-01-03T12:01:06.672Z,97950.78
2018-01-03T12:03:34.302Z,97958.84
2018-01-03T12:06:01.951Z,97961.20
2018-01-03T12:08:29.527Z,97994.59
2018-01-03T12:10:57.156Z,98023.05
2018-01-03T12:13:25.068Z,98038.48
2018-01-03T12:15:52.632Z,98012.02
2018-01-03T12:18:20.238Z,98027.48
2018-01-03T12:20:47.822Z,98010.53
2018-01-03T12:23:15.560Z,98006.23
2018-01-03T12:25:43.214Z,98010.11
2018-01-03T12:28:10.788Z,98014.25
2018-01-03T12:30:38.415Z,98016.83
2018-01-03T12:33:06.008Z,98030.94
2018-01-03T12:35:33.581Z,98026.78
2018-01-03T12:38:01.216Z,98039.41
2018-01-03T12:40:28.788Z,98045.62
2018-01-03T12:42:56.406Z,98036.67
2018-01-03T12:45:24.009Z,98048.80
2018-01-03T12:47:51.590Z,98056.22
2018-01-03T12:50:19.184Z,98058.91
2018-01-03T12:52:47.059Z,98074.25
2018-01-03T12:55:14.670Z,98065.75
2018-01-03T12:57:42.265Z,98066.19
2018-01-03T13:00:09.877Z,98078.31
2018-01-03T13:02:37.491Z,98074.66
2018-01-03T13:05:05.066Z,98080.48
2018-01-03T13:07:32.705Z,98088.09
2018-01-03T13:10:00.301Z,98095.42
2018-01-03T13:12:27.892Z,98108.82
2018-01-03T13:14:55.527Z,98098.64
2018-01-03T13:17:23.148Z,98107.76
2018-01-03T13:19:50.761Z,98133.41
2018-01-03T13:22:18.342Z,98138.75
2018-01-03T13:24:45.927Z,98139.63
2018-01-03T13:27:13.526Z,98141.80
2018-01-03T13:29:41.204Z,98144.92
2018-01-03T13:32:08.909Z,98154.50
2018-01-03T13:34:36.786Z,98148.31
2018-01-03T13:37:04.798Z,98151.13
2018-01-03T13:39:32.415Z,98151.44
2018-01-03T13:42:00.018Z,98159.14
2018-01-03T13:44:27.684Z,98160.96
2018-01-03T13:46:55.277Z,98151.59
2018-01-03T13:49:22.910Z,98162.95
2018-01-03T13:51:50.884Z,98154.78
2018-01-03T13:54:18.742Z,98157.88
2018-01-03T13:56:46.368Z,98164.95
2018-01-03T13:59:13.995Z,98169.13
2018-01-03T14:01:41.863Z,98168.72
2018-01-03T14:04:09.476Z,98174.85
2018-01-03T14:06:37.069Z,98175.75
2018-01-03T14:09:04.697Z,98183.10
2018-01-03T14:11:32.276Z,98183.95
2018-01-03T14:13:59.879Z,98190.30
2018-01-03T14:16:27.562Z,98187.28
2018-01-03T14:18:55.584Z,98188.02
2018-01-03T14:21:23.252Z,98189.39
2018-01-03T14:23:50.837Z,98190.87
2018-01-03T14:26:18.416Z,98193.82
2018-01-03T14:28:46.142Z,98190.97
2018-01-03T14:31:13.751Z,98196.53
2018-01-03T14:33:41.765Z,98196.06
2018-01-03T14:36:09.654Z,98191.38
2018-01-03T14:38:37.501Z,98200.20
2018-01-03T14:41:05.111Z,98199.95
2018-01-03T14:43:32.736Z,98198.47
2018-01-03T14:46:00.853Z,98199.38
2018-01-03T14:48:28.441Z,98198.62
2018-01-03T14:50:56.040Z,98204.02
2018-01-03T14:53:24.515Z,98204.84
2018-01-03T14:55:52.146Z,98198.53
2018-01-03T14:58:19.776Z,98205.75
2018-01-03T15:00:47.455Z,98209.48
2018-01-03T15:03:15.039Z,98196.27
2018-01-03T15:05:42.671Z,98198.83
2018-01-03T15:08:10.266Z,98198.31
2018-01-03T15:10:37.874Z,98201.11
2018-01-03T15:13:05.806Z,98205.00
2018-01-03T15:15:33.405Z,98213.25
2018-01-03T15:18:01.025Z,98216.52
2018-01-03T15:20:28.673Z,98207.59
2018-01-03T15:22:56.258Z,98219.36
2018-01-03T15:25:23.921Z,98226.70
2018-01-03T15:27:51.524Z,98233.98
2018-01-03T15:30:19.355Z,98242.27
2018-01-03T15:32:46.972Z,98225.09
2018-01-03T15:35:14.557Z,98218.45
2018-01-03T15:37:42.187Z,98216.00
2018-01-03T15:40:10.026Z,98223.44
2018-01-03T15:42:37.605Z,98227.44
2018-01-03T15:45:05.225Z,98219.80
2018-01-03T15:47:32.827Z,98227.55
2018-01-03T15:50:00.442Z,98225.37
2018-01-03T15:52:28.043Z,98222.34
2018-01-03T15:54:55.627Z,98218.20
2018-01-03T15:57:23.323Z,98219.94
2018-01-03T15:59:50.917Z,98222.99
2018-01-03T16:02:18.563Z,98215.36
2018-01-03T16:04:46.230Z,98227.16
2018-01-03T16:07:14.109Z,98218.61
2018-01-03T16:09:41.717Z,98213.94
2018-01-03T16:12:09.298Z,98206.19
2018-01-03T16:14:36.907Z,98218.41
2018-01-03T16:17:04.529Z,98210.98
2018-01-03T16:19:32.117Z,98216.34
2018-01-03T16:21:59.731Z,98216.45
2018-01-03T16:24:27.544Z,98213.08
2018-01-03T16:26:55.179Z,98214.71
2018-01-03T16:29:22.775Z,98207.75
2018-01-03T16:31:50.385Z,98222.41
2018-01-03T16:34:18.026Z,98224.42
2018-01-03T16:36:45.631Z,98226.45
2018-01-03T16:39:13.305Z,98229.30
2018-01-03T16:41:40.881Z,98230.94
2018-01-03T16:44:08.512Z,98233.23
2018-01-03T16:46:36.169Z,98228.96
2018-01-03T16:49:03.756Z,98236.91
2018-01-03T16:51:36.941Z,98238.33
2018-01-03T16:54:04.553Z,98221.52
2018-01-03T16:56:32.177Z,98231.09
2018-01-03T16:58:59.792Z,98233.23
2018-01-03T17:01:27.378Z,98250.05
2018-01-03T17:03:55.022Z,98246.20
2018-01-03T17:06:22.626Z,98244.69
2018-01-03T17:08:50.219Z,98246.34
2018-01-03T17:11:18.149Z,98234.73
2018-01-03T17:13:45.722Z,98239.35
2018-01-03T17:16:13.672Z,98241.08
2018-01-03T17:18:41.652Z,98238.23
2018-01-03T17:21:09.314Z,98248.52
2018-01-03T17:23:36.921Z,98252.41
2018-01-03T17:26:04.510Z,98237.11
2018-01-03T17:28:32.227Z,98242.81
2018-01-03T17:30:59.857Z,98238.84
2018-01-03T17:33:27.456Z,98244.85
2018-01-03T17:35:55.397Z,98241.87
2018-01-03T17:38:22.993Z,98233.31
2018-01-03T17:40:50.606Z,98247.70
2018-01-03T17:43:18.175Z,98242.38
2018-01-03T17:45:45.904Z,98248.79
2018-01-03T17:48:13.907Z,98258.88
2018-01-03T17:50:41.516Z,98247.56
2018-01-03T17:53:10.574Z,98261.63
2018-01-03T17:55:38.741Z,98260.23
2018-01-03T17:58:06.329Z,98254.73
2018-01-03T18:00:33.948Z,98259.82
2018-01-03T18:03:01.527Z,98264.40
2018-01-03T18:05:29.499Z,98255.64
2018-01-03T18:07:57.085Z,98255.84
2018-01-03T18:10:24.675Z,98247.30
2018-01-03T18:12:52.584Z,98259.20
2018-01-03T18:15:20.456Z,98259.28
2018-01-03T18:17:48.322Z,98255.34
2018-01-03T18:20:16.244Z,98252.59
2018-01-03T18:22:43.807Z,98257.24
2018-01-03T18:25:11.403Z,98254.80
2018-01-03T18:27:39.072Z,98255.81
2018-01-03T18:30:06.689Z,98265.56
2018-01-03T18:32:34.270Z,98261.31
2018-01-03T18:35:01.865Z,98243.19
2018-01-03T18:37:29.544Z,98246.86
2018-01-03T18:39:57.125Z,98250.83
2018-01-03T18:42:25.051Z,98235.92
2018-01-03T18:44:52.919Z,98265.19
2018-01-03T18:47:20.519Z,98249.57
2018-01-03T18:49:48.242Z,98248.76
2018-01-03T18:52:15.808Z,98242.44
2018-01-03T18:54:43.576Z,98248.14
2018-01-03T18:57:11.196Z,98249.98
2018-01-03T18:59:38.778Z,98236.30
2018-01-03T19:02:07.390Z,98253.00
2018-01-03T19:04:35.044Z,98253.84
2018-01-03T19:07:02.659Z,98249.44
2018-01-03T19:09:30.261Z,98248.83
2018-01-03T19:11:57.833Z,98253.81
2018-01-03T19:14:25.444Z,98261.35
2018-01-03T19:16:53.362Z,98251.57
2018-01-03T19:19:21.044Z,98247.09
2018-01-03T19:21:48.618Z,98246.17
2018-01-03T19:24:16.269Z,98259.31
2018-01-03T19:26:43.893Z,98248.01
2018-01-03T19:29:11.785Z,98253.81
2018-01-03T19:31:39.399Z,98247.30
2018-01-03T19:34:07.023Z,98253.81
2018-01-03T19:36:34.605Z,98246.28
2018-01-03T19:39:03.401Z,98240.77
2018-01-03T19:41:31.105Z,98243.02
2018-01-03T19:43:59.002Z,98231.71
2018-01-03T19:46:26.583Z,98247.50
2018-01-03T19:48:54.168Z,98250.05
2018-01-03T19:51:21.776Z,98249.30
2018-01-03T19:53:49.373Z,98250.15
2018-01-03T19:56:17.307Z,98243.94
2018-01-03T19:58:45.182Z,98256.91
2018-01-03T20:01:12.762Z,98245.46
2018-01-03T20:03:40.379Z,98257.58
2018-01-03T20:06:07.980Z,98263.80
2018-01-03T20:08:35.605Z,98257.55
2018-01-03T20:11:03.220Z,98260.09
2018-01-03T20:13:30.858Z,98255.58
2018-01-03T20:15:58.576Z,98251.40
2018-01-03T20:18:26.252Z,98264.54
2018-01-03T20:20:53.859Z,98259.03
2018-01-03T20:23:21.556Z,98263.62
2018-01-03T20:25:49.171Z,98252.58
2018-01-03T20:28:16.903Z,98252.92
2018-01-03T20:30:44.792Z,98277.47
2018-01-03T20:33:12.516Z,98273.47
2018-01-03T20:35:40.423Z,98275.19
2018-01-03T20:38:08.066Z,98266.53
2018-01-03T20:40:35.756Z,98273.77
2018-01-03T20:43:03.719Z,98262.77
2018-01-03T20:45:31.589Z,98282.63
2018-01-03T20:48:00.519Z,98285.08
2018-01-03T20:50:28.484Z,98283.45
2018-01-03T20:52:56.100Z,98287.32
2018-01-03T20:55:23.739Z,98285.83
2018-01-03T20:57:51.362Z,98293.47
2018-01-03T21:00:19.315Z,98291.27
2018-01-03T21:02:46.935Z,98297.98
2018-01-03T21:05:14.568Z,98301.05
2018-01-03T21:07:42.153Z,98300.63
2018-01-03T21:10:09.789Z,98302.67
2018-01-03T21:12:37.416Z,98300.53
2018-01-03T21:15:05.953Z,98321.31
2018-01-03T21:17:33.564Z,98319.17
2018-01-03T21:20:01.531Z,98317.92
2018-01-03T21:22:29.144Z,98314.87
2018-01-03T21:24:56.787Z,98321.83
2018-01-03T21:27:24.391Z,98325.77
2018-01-03T21:29:52.047Z,98335.75
2018-01-03T21:32:19.652Z,98331.00
2018-01-03T21:34:47.310Z,98328.79
2018-01-03T21:37:15.179Z,98339.08
2018-01-03T21:39:42.860Z,98351.92
2018-01-03T21:42:10.806Z,98354.95
2018-01-03T21:44:38.390Z,98371.66
2018-01-03T21:47:06.005Z,98359.43
2018-01-03T21:49:33.598Z,98361.67
2018-01-03T21:52:01.416Z,98363.09
2018-01-03T21:54:29.818Z,98364.22
2018-01-03T21:56:57.428Z,98386.95
2018-01-03T21:59:25.052Z,98383.86
2018-01-03T22:01:52.657Z,98369.59
2018-01-03T22:04:20.497Z,98373.87
2018-01-03T22:06:48.471Z,98372.61
2018-01-03T22:09:16.048Z,98373.42
2018-01-03T22:11:43.675Z,98372.92
2018-01-03T22:14:11.256Z,98377.81
2018-01-03T22:16:38.836Z,98390.52
2018-01-03T22:19:06.430Z,98395.11
2018-01-03T22:21:34.014Z,98386.51
2018-01-03T22:24:01.628Z,98396.97
2018-01-03T22:26:29.230Z,98386.27
2018-01-03T22:28:57.138Z,98398.16
2018-01-03T22:31:24.747Z,98386.42
2018-01-03T22:33:52.327Z,98385.02
2018-01-03T22:36:19.896Z,98385.87
2018-01-03T22:38:47.519Z,98414.64
2018-01-03T22:41:15.100Z,98394.30
2018-01-03T22:43:42.686Z,98416.44
2018-01-03T22:46:10.422Z,98397.39
2018-01-03T22:48:37.999Z,98440.13
2018-01-03T22:51:05.996Z,98415.41
2018-01-03T22:53:33.607Z,98437.38
2018-01-03T22:56:01.218Z,98432.24
2018-01-03T22:58:28.832Z,98435.81
2018-01-03T23:03:30.320Z,98414.91
2018-01-03T23:05:57.900Z,98430.37
2018-01-03T23:08:25.484Z,98419.19
2018-01-03T23:10:53.088Z,98418.67
2018-01-03T23:13:20.728Z,98409.70
2018-01-03T23:15:48.358Z,98428.16
2018-01-03T23:18:15.981Z,98409.28
2018-01-03T23:20:43.564Z,98410.36
2018-01-03T23:23:11.168Z,98428.72
2018-01-03T23:25:38.784Z,98413.42
2018-01-03T23:28:06.442Z,98417.45
2018-01-03T23:30:34.028Z,98428.64
2018-01-03T23:33:01.910Z,98428.95
2018-01-03T23:35:29.557Z,98417.81
2018-01-03T23:37:57.424Z,98435.88
2018-01-03T23:40:25.045Z,98437.27
2018-01-03T23:42:52.689Z,98448.64
2018-01-03T23:45:20.292Z,98449.67
2018-01-03T23:47:47.927Z,98442.32
2018-01-03T23:50:15.846Z,98447.93
2018-01-03T23:52:43.470Z,98447.11
2018-01-03T23:55:11.076Z,98477.84
2018-01-03T23:57:38.676Z,98463.14
